X  Sluiten METAR luchtvaart weer gegevens      EHGR Gilze Rijen Air Base
Temperatuur
7°C Temperatuur
7°C Dauwpunt
100% Vochtigheid



Wind
8 KM/U
5 MPH
2 M/S
4 KTS



240°
WZW
Huidig weer

Nevel Nevel
Luchtdruk 995.92 (hPa) - 29.41 (inHg)
Zicht 2.9 (mijl) - 4.7 (km)
Vliegveld
Vliegveld code EHGR

Locatie : Gilze Rijen Air Base
Afstand: 20 (km)

Metar:
EHGR 272329Z AUTO 24004KT 4700 BR FEW015CB BKN045 BKN051 07/07 Q0996 GRN

Tijd: 28-09-2022 01:29 CEST